Accueil
METAR-TAF:

METAR-TAF

Aéroports :

Gilze-Rijen, Pays-Bas

latitude: 51-34N, longitude: 004-56E, altitude: 15 m

Observation

Le bulletin a été fait il y a 26 minutes, à 18:25 UTC
Vent 8 kt de nord, variant entre nord-ouest et nord-est
Température 23°C
Humidité 47%
Pression 1019 hPa
Visibilité 10 km ou plus
Ciel couvert à une hauteur de 38000 ft

METAR: EHGR 151825Z AUTO 01008KT 320V050 9999 OVC380 23/11 Q1019 BLU

Heure: 20:51 (18:51 UTC)

Prévision

Le bulletin a été fait il y a 10 heures et 32 minutes, à 08:19 UTC
Prévision valable du 15 à 09 UTC au 15 à 21 UTC
Vent 6 kt de nord/nord-est
Visibilité 10 km ou plus
Nuages fragmentés à une hauteur de 4600 ft

TAF: EHGR 150819Z 1509/1521 03006KT 9999 BKN046

Observations et prévisions météorologiques de plus de 4000 aéroports (messages METAR et TAF).

Les stations disponibles sont représentées par des disques jaunes et rouges sur la carte.

Passer la souris dessus pour voir le nom de la station.

Cliquer dessus pour voir les observations et prévisions météorologiques.

Pour changer de carte: cliquez sur les boutons verts avec une croix noire pour zoomer, sur le bouton vert avec un tiret pour effectuer un zoom arrière, ou sur les flèches vertes pour les cartes adjacentes.


METAR-TAF: